createdAt,value
2023-01-12T00:00:32.158Z,82.16
2023-01-12T00:03:35.011Z,82.27
2023-01-12T00:06:39.018Z,82.70
2023-01-12T00:09:44.762Z,82.92
2023-01-12T00:12:47.467Z,82.74
2023-01-12T00:16:04.524Z,82.70
2023-01-12T00:19:12.666Z,82.64
2023-01-12T00:22:18.304Z,82.51
2023-01-12T00:25:21.476Z,82.66
2023-01-12T00:28:24.217Z,82.83
2023-01-12T00:31:26.950Z,82.65
2023-01-12T00:34:32.980Z,82.83
2023-01-12T00:37:37.226Z,82.97
2023-01-12T00:40:39.945Z,83.02
2023-01-12T00:44:00.156Z,82.73
2023-01-12T00:47:03.915Z,82.95
2023-01-12T00:50:07.276Z,82.85
2023-01-12T00:53:13.830Z,82.55
2023-01-12T00:56:17.167Z,82.34
2023-01-12T00:59:24.396Z,82.65
2023-01-12T01:02:27.937Z,82.71
2023-01-12T01:05:31.175Z,82.96
2023-01-12T01:08:37.777Z,83.05
2023-01-12T01:11:41.676Z,82.89
2023-01-12T01:14:44.450Z,83.13
2023-01-12T01:17:47.098Z,83.27
2023-01-12T01:20:49.783Z,83.56
2023-01-12T01:23:54.124Z,83.14
2023-01-12T01:26:56.815Z,83.27
2023-01-12T01:29:59.457Z,83.64
2023-01-12T01:33:02.209Z,83.29
2023-01-12T01:36:05.246Z,83.07
2023-01-12T01:39:09.314Z,83.79
2023-01-12T01:42:27.962Z,83.58
2023-01-12T01:45:30.848Z,83.54
2023-01-12T01:48:37.779Z,83.17
2023-01-12T01:51:43.055Z,83.39
2023-01-12T01:54:51.747Z,83.20
2023-01-12T01:57:58.417Z,82.96
2023-01-12T02:01:20.258Z,83.00
2023-01-12T02:04:25.949Z,83.14
2023-01-12T02:07:28.616Z,82.82
2023-01-12T02:10:32.827Z,82.51
2023-01-12T02:13:53.121Z,82.81
2023-01-12T02:17:08.174Z,82.20
2023-01-12T02:20:48.363Z,81.82
2023-01-12T02:24:20.507Z,82.17
2023-01-12T02:27:51.667Z,82.20
2023-01-12T02:31:17.773Z,82.08
2023-01-12T02:34:35.396Z,82.08
2023-01-12T02:37:47.535Z,81.52
2023-01-12T02:40:59.572Z,81.48
2023-01-12T02:44:05.395Z,81.90
2023-01-12T02:47:17.269Z,81.93
2023-01-12T02:50:24.948Z,82.01
2023-01-12T02:53:34.452Z,82.34
2023-01-12T02:56:41.010Z,82.70
2023-01-12T02:59:46.678Z,82.60
2023-01-12T03:02:52.093Z,82.55
2023-01-12T03:05:56.877Z,82.41
2023-01-12T03:08:59.684Z,82.46
2023-01-12T03:12:07.095Z,82.93
2023-01-12T03:15:12.466Z,82.43
2023-01-12T03:18:28.272Z,82.88
2023-01-12T03:21:36.461Z,82.85
2023-01-12T03:24:43.057Z,82.85
2023-01-12T03:27:49.970Z,82.88
2023-01-12T03:30:57.856Z,83.22
2023-01-12T03:34:03.007Z,82.75
2023-01-12T03:37:12.690Z,82.62
2023-01-12T03:40:19.949Z,83.26
2023-01-12T03:43:29.665Z,82.87
2023-01-12T03:46:36.768Z,83.26
2023-01-12T03:49:45.056Z,83.06
2023-01-12T03:52:49.522Z,83.32
2023-01-12T03:56:00.629Z,83.10
2023-01-12T03:59:05.080Z,82.93
2023-01-12T04:02:08.629Z,83.10
2023-01-12T04:05:14.130Z,83.29
2023-01-12T04:08:17.619Z,82.96
2023-01-12T04:11:37.802Z,83.05
2023-01-12T04:14:41.917Z,82.57
2023-01-12T04:17:44.625Z,81.88
2023-01-12T04:20:48.677Z,81.81
2023-01-12T04:23:50.407Z,81.66
2023-01-12T04:26:53.111Z,81.57
2023-01-12T04:29:55.961Z,81.40
2023-01-12T04:32:59.463Z,81.59
2023-01-12T04:36:03.504Z,81.72
2023-01-12T04:39:08.112Z,81.25
2023-01-12T04:42:31.000Z,81.38
2023-01-12T04:45:36.005Z,81.86
2023-01-12T04:48:40.704Z,81.69
2023-01-12T04:51:45.655Z,82.40
2023-01-12T04:54:48.316Z,82.74
2023-01-12T04:57:51.081Z,82.68
2023-01-12T05:00:53.753Z,82.77
2023-01-12T05:03:57.863Z,82.96
2023-01-12T05:07:02.541Z,83.13
2023-01-12T05:10:24.633Z,83.54
2023-01-12T05:13:35.461Z,83.72
2023-01-12T05:16:38.828Z,83.75
2023-01-12T05:19:41.735Z,83.85
2023-01-12T05:22:45.963Z,83.76
2023-01-12T05:25:48.631Z,83.92
2023-01-12T05:28:52.188Z,83.46
2023-01-12T05:31:54.949Z,83.93
2023-01-12T05:34:57.682Z,83.45
2023-01-12T05:38:02.158Z,83.17
2023-01-12T05:41:07.350Z,83.10
2023-01-12T05:44:09.691Z,83.21
2023-01-12T05:47:12.355Z,82.91
2023-01-12T05:50:17.293Z,83.00
2023-01-12T05:53:23.759Z,83.00
2023-01-12T05:56:27.924Z,83.30
2023-01-12T05:59:30.837Z,83.33
2023-01-12T06:02:36.735Z,83.72
2023-01-12T06:05:39.450Z,83.65
2023-01-12T06:08:43.530Z,83.63
2023-01-12T06:12:03.918Z,83.77
2023-01-12T06:15:09.736Z,84.09
2023-01-12T06:18:12.627Z,83.74
2023-01-12T06:21:15.625Z,84.13
2023-01-12T06:24:19.635Z,83.87
2023-01-12T06:27:22.409Z,83.78
2023-01-12T06:30:25.163Z,84.21
2023-01-12T06:33:28.870Z,84.02
2023-01-12T06:36:33.153Z,84.17
2023-01-12T06:39:37.195Z,84.39
2023-01-12T06:42:42.126Z,84.09
2023-01-12T06:45:45.378Z,84.37
2023-01-12T06:48:48.280Z,84.12
2023-01-12T06:51:51.512Z,83.96
2023-01-12T06:54:56.601Z,83.85
2023-01-12T06:58:05.783Z,83.74
2023-01-12T07:01:12.590Z,83.70
2023-01-12T07:04:24.167Z,83.84
2023-01-12T07:07:26.894Z,83.71
2023-01-12T07:10:32.608Z,83.68
2023-01-12T07:13:35.705Z,83.97
2023-01-12T07:16:45.597Z,84.13
2023-01-12T07:19:48.269Z,84.23
2023-01-12T07:22:51.148Z,84.37
2023-01-12T07:25:57.726Z,84.32
2023-01-12T07:29:02.719Z,84.80
2023-01-12T07:32:07.932Z,84.07
2023-01-12T07:35:10.835Z,84.06
2023-01-12T07:38:13.681Z,83.90
2023-01-12T07:41:37.762Z,83.52
2023-01-12T07:44:42.174Z,83.05
2023-01-12T07:47:53.315Z,83.51
2023-01-12T07:50:56.660Z,83.79
2023-01-12T07:53:59.369Z,83.71
2023-01-12T07:57:06.197Z,83.63
2023-01-12T08:00:13.482Z,83.02
2023-01-12T08:03:23.550Z,81.86
2023-01-12T08:06:26.241Z,80.99
2023-01-12T08:09:29.143Z,81.07
2023-01-12T08:12:33.492Z,81.68
2023-01-12T08:15:42.873Z,81.69
2023-01-12T08:18:49.132Z,81.71
2023-01-12T08:21:58.692Z,82.04
2023-01-12T08:25:06.247Z,81.84
2023-01-12T08:28:13.587Z,81.72
2023-01-12T08:34:22.436Z,81.64
2023-01-12T08:37:26.090Z,81.81
2023-01-12T08:40:50.268Z,81.64
2023-01-12T08:44:03.157Z,82.20
2023-01-12T08:47:15.343Z,82.98
2023-01-12T08:50:18.025Z,83.12
2023-01-12T08:53:20.649Z,83.38
2023-01-12T08:56:23.737Z,83.22
2023-01-12T08:59:28.623Z,83.15
2023-01-12T09:02:31.437Z,83.21
2023-01-12T09:05:34.225Z,83.42
2023-01-12T09:08:36.972Z,83.34
2023-01-12T09:11:42.944Z,82.48
2023-01-12T09:14:49.835Z,82.25
2023-01-12T09:17:53.961Z,82.33
2023-01-12T09:21:01.399Z,82.00
2023-01-12T09:24:04.486Z,81.64
2023-01-12T09:27:07.228Z,81.87
2023-01-12T09:30:14.477Z,81.70
2023-01-12T09:33:19.940Z,81.74
2023-01-12T09:36:26.384Z,82.14
2023-01-12T09:39:29.102Z,81.98
2023-01-12T09:42:49.409Z,82.24
2023-01-12T09:46:10.992Z,82.86
2023-01-12T09:49:15.892Z,82.75
2023-01-12T09:52:23.528Z,83.30
2023-01-12T09:55:30.403Z,83.07
2023-01-12T09:59:09.899Z,83.68
2023-01-12T10:02:14.921Z,83.37
2023-01-12T10:05:39.635Z,83.57
2023-01-12T10:08:45.192Z,83.31
2023-01-12T10:11:57.239Z,83.59
2023-01-12T10:15:29.903Z,83.48
2023-01-12T10:18:40.525Z,83.01
2023-01-12T10:21:43.310Z,82.65
2023-01-12T10:24:47.232Z,82.61
2023-01-12T10:27:52.169Z,82.11
2023-01-12T10:30:59.198Z,82.48
2023-01-12T10:34:07.023Z,82.41
2023-01-12T10:37:13.278Z,81.44
2023-01-12T10:40:32.924Z,80.49
2023-01-12T10:43:43.169Z,79.76
2023-01-12T10:47:09.881Z,79.01
2023-01-12T10:50:27.355Z,79.21
2023-01-12T10:53:37.072Z,78.26
2023-01-12T10:56:43.167Z,77.70
2023-01-12T10:59:55.656Z,77.48
2023-01-12T11:02:58.577Z,76.51
2023-01-12T11:06:24.589Z,76.18
2023-01-12T11:09:29.237Z,75.72
2023-01-12T11:12:35.823Z,75.65
2023-01-12T11:15:40.276Z,75.47
2023-01-12T11:18:48.952Z,75.63
2023-01-12T11:21:57.877Z,75.39
2023-01-12T11:25:05.373Z,75.51
2023-01-12T11:28:17.096Z,75.46
2023-01-12T11:31:23.760Z,75.11
2023-01-12T11:34:30.880Z,75.02
2023-01-12T11:37:39.368Z,74.63
2023-01-12T11:40:44.621Z,73.78
2023-01-12T11:43:59.012Z,74.20
2023-01-12T11:47:07.220Z,74.16
2023-01-12T11:50:16.882Z,74.55
2023-01-12T11:53:26.386Z,73.90
2023-01-12T11:56:53.033Z,74.01
2023-01-12T12:00:07.282Z,73.74
2023-01-12T12:03:28.200Z,73.13
2023-01-12T12:07:03.090Z,73.25
2023-01-12T12:10:21.147Z,72.79
2023-01-12T12:13:35.859Z,72.26
2023-01-12T12:16:48.438Z,71.39
2023-01-12T12:20:05.155Z,71.22
2023-01-12T12:23:23.960Z,71.23
2023-01-12T12:26:33.372Z,71.09
2023-01-12T12:29:51.500Z,70.90
2023-01-12T12:33:14.907Z,71.45
2023-01-12T12:36:24.242Z,71.74
2023-01-12T12:39:46.342Z,72.33
2023-01-12T12:43:22.975Z,72.42
2023-01-12T12:46:34.586Z,72.40
2023-01-12T12:49:40.503Z,72.55
2023-01-12T12:52:44.348Z,72.62
2023-01-12T12:55:47.569Z,73.11
2023-01-12T12:58:53.239Z,72.96
2023-01-12T13:01:56.614Z,73.58
2023-01-12T13:05:05.019Z,73.79
2023-01-12T13:08:17.947Z,73.85
2023-01-12T13:11:22.706Z,74.48
2023-01-12T13:14:29.034Z,74.08
2023-01-12T13:17:44.730Z,74.48
2023-01-12T13:20:55.687Z,74.85
2023-01-12T13:24:27.010Z,75.29
2023-01-12T13:27:54.175Z,75.31
2023-01-12T13:31:03.088Z,76.19
2023-01-12T13:34:31.601Z,76.72
2023-01-12T13:37:45.686Z,77.38
2023-01-12T13:40:56.031Z,77.80
2023-01-12T13:44:01.211Z,78.77
2023-01-12T13:47:20.059Z,79.13
2023-01-12T13:50:28.461Z,79.04
2023-01-12T13:53:32.974Z,79.30
2023-01-12T13:56:36.030Z,79.01
2023-01-12T13:59:38.780Z,79.15
2023-01-12T14:02:43.424Z,79.03
2023-01-12T14:05:58.242Z,78.72
2023-01-12T14:09:14.063Z,78.82
2023-01-12T14:12:32.050Z,78.66
2023-01-12T14:15:56.090Z,78.39
2023-01-12T14:19:00.308Z,78.50
2023-01-12T14:22:06.877Z,78.96
2023-01-12T14:25:21.480Z,78.92
2023-01-12T14:28:25.563Z,78.48
2023-01-12T14:31:34.685Z,78.51
2023-01-12T14:34:38.934Z,78.96
2023-01-12T14:37:41.752Z,79.28
2023-01-12T14:40:50.339Z,79.45
2023-01-12T14:44:10.412Z,79.34
2023-01-12T14:47:25.156Z,79.00
2023-01-12T14:50:29.192Z,79.09
2023-01-12T14:53:39.851Z,79.21
2023-01-12T14:56:45.144Z,79.41
2023-01-12T14:59:49.863Z,79.39
2023-01-12T15:02:54.210Z,79.31
2023-01-12T15:05:59.447Z,79.33
2023-01-12T15:09:02.308Z,79.53
2023-01-12T15:12:43.929Z,79.49
2023-01-12T15:16:10.916Z,79.98
2023-01-12T15:19:33.104Z,80.07
2023-01-12T15:22:54.636Z,79.60
2023-01-12T15:25:57.532Z,79.86
2023-01-12T15:29:00.349Z,79.97
2023-01-12T15:32:06.486Z,80.16
2023-01-12T15:35:16.348Z,80.11
2023-01-12T15:38:20.754Z,79.78
2023-01-12T15:41:39.890Z,79.93
2023-01-12T15:44:43.253Z,79.57
2023-01-12T15:47:45.927Z,80.04
2023-01-12T15:50:49.464Z,79.75
2023-01-12T15:53:53.582Z,80.13
2023-01-12T15:56:59.716Z,79.89
2023-01-12T16:00:03.209Z,79.80
2023-01-12T16:03:06.223Z,79.26
2023-01-12T16:06:09.024Z,79.08
2023-01-12T16:09:13.203Z,78.90
2023-01-12T16:12:16.137Z,78.95
2023-01-12T16:15:20.963Z,78.50
2023-01-12T16:18:23.671Z,78.87
2023-01-12T16:21:28.469Z,78.99
2023-01-12T16:24:32.762Z,79.08
2023-01-12T16:27:37.458Z,79.15
2023-01-12T16:30:44.949Z,78.78
2023-01-12T16:33:48.411Z,79.22
2023-01-12T16:36:51.571Z,78.69
2023-01-12T16:39:57.135Z,78.60
2023-01-12T16:42:59.871Z,79.00
2023-01-12T16:46:03.555Z,78.89
2023-01-12T16:49:06.455Z,78.89
2023-01-12T16:52:13.359Z,78.87
2023-01-12T16:55:17.503Z,78.47
2023-01-12T16:58:20.638Z,78.51
2023-01-12T17:01:24.826Z,78.52
2023-01-12T17:04:27.997Z,78.44
2023-01-12T17:07:30.983Z,78.16
2023-01-12T17:10:36.470Z,78.52
2023-01-12T17:13:40.256Z,78.25
2023-01-12T17:16:43.826Z,78.02
2023-01-12T17:19:47.355Z,78.50
2023-01-12T17:22:50.153Z,78.04
2023-01-12T17:25:55.794Z,78.14
2023-01-12T17:28:58.625Z,77.99
2023-01-12T17:32:06.708Z,77.19
2023-01-12T17:35:10.839Z,77.36
2023-01-12T17:38:13.681Z,77.74
2023-01-12T17:41:32.177Z,77.90
2023-01-12T17:44:34.851Z,77.40
2023-01-12T17:47:37.592Z,77.30
2023-01-12T17:50:41.074Z,77.47
2023-01-12T17:53:44.060Z,77.69
2023-01-12T17:56:48.164Z,77.72
2023-01-12T17:59:51.580Z,77.91
2023-01-12T18:02:54.619Z,77.78
2023-01-12T18:06:04.499Z,77.39
2023-01-12T18:09:11.175Z,77.29
2023-01-12T18:12:16.439Z,77.37
2023-01-12T18:15:19.879Z,77.59
2023-01-12T18:18:22.657Z,77.40
2023-01-12T18:21:27.632Z,77.24
2023-01-12T18:24:30.544Z,77.71
2023-01-12T18:27:34.600Z,77.68
2023-01-12T18:30:37.429Z,78.44
2023-01-12T18:33:40.450Z,78.51
2023-01-12T18:36:43.676Z,78.37
2023-01-12T18:39:46.802Z,78.37
2023-01-12T18:42:49.942Z,78.50
2023-01-12T18:45:52.611Z,78.36
2023-01-12T18:48:54.395Z,78.11
2023-01-12T18:52:16.016Z,77.98
2023-01-12T18:55:19.250Z,77.85
2023-01-12T18:58:24.580Z,77.57
2023-01-12T19:01:27.317Z,77.50
2023-01-12T19:04:48.236Z,77.36
2023-01-12T19:08:05.199Z,77.42
2023-01-12T19:11:09.533Z,77.17
2023-01-12T19:14:30.825Z,77.20
2023-01-12T19:17:33.821Z,77.31
2023-01-12T19:20:39.721Z,77.68
2023-01-12T19:24:00.056Z,78.08
2023-01-12T19:27:20.886Z,78.62
2023-01-12T19:30:25.018Z,79.23
2023-01-12T19:33:27.897Z,80.11
2023-01-12T19:36:30.573Z,80.62
2023-01-12T19:39:59.640Z,80.57
2023-01-12T19:43:13.691Z,81.05
2023-01-12T19:46:18.210Z,81.70
2023-01-12T19:49:20.942Z,82.37
2023-01-12T19:52:23.655Z,83.00
2023-01-12T19:55:26.690Z,83.05
2023-01-12T19:58:29.632Z,83.58
2023-01-12T20:01:33.887Z,83.33
2023-01-12T20:04:36.925Z,83.46
2023-01-12T20:07:39.789Z,83.63
2023-01-12T20:10:42.503Z,83.85
2023-01-12T20:13:45.166Z,83.71
2023-01-12T20:16:49.216Z,83.54
2023-01-12T20:19:52.136Z,83.84
2023-01-12T20:22:55.617Z,83.29
2023-01-12T20:25:58.960Z,82.92
2023-01-12T20:29:01.699Z,83.46
2023-01-12T20:32:06.081Z,83.23
2023-01-12T20:35:10.430Z,83.63
2023-01-12T20:38:16.250Z,83.15
2023-01-12T20:41:19.919Z,83.45
2023-01-12T20:44:22.917Z,83.57
2023-01-12T20:47:27.795Z,83.03
2023-01-12T20:50:30.556Z,83.02
2023-01-12T20:53:33.275Z,82.94
2023-01-12T20:56:35.964Z,83.25
2023-01-12T20:59:38.962Z,82.97
2023-01-12T21:02:43.100Z,81.92
2023-01-12T21:05:47.367Z,81.99
2023-01-12T21:08:50.074Z,81.90
2023-01-12T21:11:53.338Z,82.21
2023-01-12T21:14:56.184Z,81.67
2023-01-12T21:18:00.334Z,81.65
2023-01-12T21:21:03.465Z,81.03
2023-01-12T21:24:06.708Z,80.48
2023-01-12T21:27:09.443Z,80.50
2023-01-12T21:30:12.945Z,80.42
2023-01-12T21:33:17.801Z,80.44
2023-01-12T21:36:20.632Z,80.29
2023-01-12T21:39:23.370Z,80.23
2023-01-12T21:42:43.657Z,80.21
2023-01-12T21:45:49.107Z,79.74
2023-01-12T21:48:53.252Z,79.82
2023-01-12T21:51:55.909Z,79.25
2023-01-12T21:54:58.597Z,79.78
2023-01-12T21:58:02.912Z,79.68
2023-01-12T22:01:10.801Z,79.96
2023-01-12T22:04:14.925Z,80.32
2023-01-12T22:07:18.056Z,80.17
2023-01-12T22:10:21.032Z,79.97
2023-01-12T22:13:23.921Z,80.35
2023-01-12T22:16:27.361Z,79.85
2023-01-12T22:19:31.877Z,80.04
2023-01-12T22:22:35.373Z,79.94
2023-01-12T22:25:38.866Z,80.00
2023-01-12T22:28:43.718Z,79.61
2023-01-12T22:31:46.567Z,79.92
2023-01-12T22:34:51.153Z,79.85
2023-01-12T22:37:54.760Z,79.47
2023-01-12T22:40:57.837Z,79.37
2023-01-12T22:44:02.677Z,79.92
2023-01-12T22:47:05.400Z,79.99
2023-01-12T22:50:11.523Z,79.87
2023-01-12T22:53:14.862Z,80.33
2023-01-12T22:56:20.440Z,80.18
2023-01-12T22:59:23.259Z,80.54
2023-01-12T23:02:44.891Z,81.12
2023-01-12T23:05:56.230Z,80.91
2023-01-12T23:08:59.059Z,81.15
2023-01-12T23:12:02.080Z,81.09
2023-01-12T23:15:05.452Z,81.02
2023-01-12T23:18:09.222Z,80.55
2023-01-12T23:21:15.820Z,80.98
2023-01-12T23:24:18.713Z,81.15
2023-01-12T23:27:21.570Z,80.91
2023-01-12T23:30:24.401Z,81.14
2023-01-12T23:33:27.296Z,81.35
2023-01-12T23:36:31.909Z,81.01
2023-01-12T23:39:34.748Z,81.10
2023-01-12T23:42:37.709Z,80.60
2023-01-12T23:45:40.597Z,81.01
2023-01-12T23:48:43.825Z,81.03
2023-01-12T23:51:48.045Z,81.28
2023-01-12T23:54:51.874Z,81.26
2023-01-12T23:57:54.724Z,81.29
